createdAt,value
2019-05-13T00:00:47.859Z,4.37
2019-05-13T00:03:18.363Z,3.90
2019-05-13T00:05:48.876Z,4.63
2019-05-13T00:08:21.783Z,4.60
2019-05-13T00:10:50.027Z,4.50
2019-05-13T00:13:20.493Z,4.60
2019-05-13T00:15:50.912Z,4.90
2019-05-13T00:18:23.343Z,4.83
2019-05-13T00:20:54.037Z,4.47
2019-05-13T00:23:23.358Z,4.67
2019-05-13T00:25:54.589Z,5.20
2019-05-13T00:28:23.640Z,4.70
2019-05-13T00:30:54.374Z,5.87
2019-05-13T00:33:24.396Z,5.20
2019-05-13T00:35:54.385Z,5.57
2019-05-13T00:38:24.955Z,5.53
2019-05-13T00:40:55.404Z,5.10
2019-05-13T00:43:25.940Z,5.37
2019-05-13T00:45:56.464Z,5.23
2019-05-13T00:48:29.624Z,5.63
2019-05-13T00:50:57.521Z,5.23
2019-05-13T00:53:27.934Z,5.37
2019-05-13T00:55:58.237Z,5.27
2019-05-13T00:58:28.590Z,5.27
2019-05-13T01:00:59.127Z,5.47
2019-05-13T01:03:29.560Z,5.40
2019-05-13T01:05:59.773Z,4.90
2019-05-13T01:08:30.172Z,5.27
2019-05-13T01:11:00.832Z,4.97
2019-05-13T01:13:31.136Z,5.03
2019-05-13T01:16:03.516Z,5.13
2019-05-13T01:18:33.813Z,5.10
2019-05-13T01:21:04.184Z,5.43
2019-05-13T01:23:34.372Z,4.43
2019-05-13T01:26:03.985Z,4.90
2019-05-13T01:28:34.513Z,4.93
2019-05-13T01:31:04.170Z,5.30
2019-05-13T01:33:35.090Z,5.17
2019-05-13T01:36:05.432Z,5.90
2019-05-13T01:38:35.320Z,5.10
2019-05-13T01:42:29.911Z,6.07
2019-05-13T01:45:00.308Z,5.60
2019-05-13T01:47:30.763Z,5.57
2019-05-13T01:50:03.409Z,5.73
2019-05-13T01:52:33.862Z,6.27
2019-05-13T01:55:03.980Z,6.67
2019-05-13T01:57:34.288Z,5.67
2019-05-13T02:00:04.727Z,5.90
2019-05-13T02:02:34.596Z,5.57
2019-05-13T02:05:05.151Z,6.60
2019-05-13T02:07:34.763Z,6.63
2019-05-13T02:10:05.550Z,6.03
2019-05-13T02:12:35.948Z,6.30
2019-05-13T02:15:06.479Z,6.13
2019-05-13T02:17:36.708Z,6.97
2019-05-13T02:20:07.334Z,6.40
2019-05-13T02:22:37.869Z,6.73
2019-05-13T02:25:08.569Z,8.10
2019-05-13T02:27:38.972Z,5.90
2019-05-13T02:30:09.414Z,6.67
2019-05-13T02:32:42.529Z,6.77
2019-05-13T02:35:13.578Z,6.13
2019-05-13T02:37:43.482Z,6.10
2019-05-13T02:40:13.545Z,5.63
2019-05-13T02:42:43.699Z,6.00
2019-05-13T02:45:12.921Z,5.77
2019-05-13T02:47:44.151Z,5.93
2019-05-13T02:50:14.046Z,5.57
2019-05-13T02:52:44.736Z,5.43
2019-05-13T02:55:15.331Z,4.80
2019-05-13T02:57:45.908Z,4.80
2019-05-13T03:00:16.540Z,4.80
2019-05-13T03:02:46.934Z,5.00
2019-05-13T03:05:17.553Z,4.40
2019-05-13T03:07:48.113Z,5.10
2019-05-13T03:10:18.609Z,3.93
2019-05-13T03:12:49.051Z,3.47
2019-05-13T03:15:22.916Z,2.87
2019-05-13T03:17:54.973Z,3.90
2019-05-13T03:20:25.347Z,2.90
2019-05-13T03:22:55.720Z,2.60
2019-05-13T03:25:26.182Z,3.60
2019-05-13T03:27:56.731Z,2.53
2019-05-13T03:30:28.852Z,3.10
2019-05-13T03:33:04.047Z,2.63
2019-05-13T03:35:35.968Z,2.47
2019-05-13T03:38:03.394Z,2.70
2019-05-13T03:40:32.915Z,2.60
2019-05-13T03:43:03.110Z,2.13
2019-05-13T03:45:33.299Z,2.23
2019-05-13T03:48:04.481Z,2.40
2019-05-13T03:50:34.872Z,2.40
2019-05-13T03:53:04.821Z,2.30
2019-05-13T03:55:35.500Z,2.47
2019-05-13T03:58:06.052Z,2.70
2019-05-13T04:00:36.689Z,2.40
2019-05-13T04:03:07.248Z,2.63
2019-05-13T04:05:43.433Z,2.90
2019-05-13T04:08:12.995Z,2.93
2019-05-13T04:10:42.148Z,2.40
2019-05-13T04:13:12.543Z,2.37
2019-05-13T04:15:42.944Z,2.90
2019-05-13T04:18:12.791Z,2.63
2019-05-13T04:20:43.237Z,2.97
2019-05-13T04:23:13.700Z,2.60
2019-05-13T04:25:44.859Z,2.80
2019-05-13T04:28:14.957Z,2.70
2019-05-13T04:30:45.493Z,2.10
2019-05-13T04:33:16.036Z,2.20
2019-05-13T04:35:46.420Z,3.10
2019-05-13T04:38:16.882Z,2.40
2019-05-13T04:40:47.368Z,2.43
2019-05-13T04:43:17.930Z,2.43
2019-05-13T04:45:48.564Z,2.40
2019-05-13T04:48:19.020Z,2.40
2019-05-13T04:50:49.610Z,2.70
2019-05-13T04:53:22.734Z,2.53
2019-05-13T04:55:52.673Z,2.43
2019-05-13T04:58:23.540Z,3.60
2019-05-13T05:01:23.467Z,2.27
2019-05-13T05:03:57.459Z,2.40
2019-05-13T05:06:35.877Z,2.60
2019-05-13T05:09:12.540Z,2.00
2019-05-13T05:12:02.171Z,2.37
2019-05-13T05:14:37.612Z,2.47
2019-05-13T05:17:52.145Z,2.13
2019-05-13T05:20:35.336Z,2.40
2019-05-13T05:23:12.020Z,1.97
2019-05-13T05:25:55.928Z,2.03
2019-05-13T05:28:51.890Z,2.37
2019-05-13T05:31:32.949Z,2.10
2019-05-13T05:34:43.010Z,2.23
2019-05-13T05:37:23.609Z,2.70
2019-05-13T05:39:55.059Z,2.00
2019-05-13T05:42:26.303Z,2.30
2019-05-13T05:44:57.042Z,2.60
2019-05-13T05:47:27.679Z,1.77
2019-05-13T05:49:58.376Z,2.53
2019-05-13T05:52:31.491Z,2.00
2019-05-13T05:55:02.277Z,2.30
2019-05-13T05:57:31.402Z,2.20
2019-05-13T06:00:02.657Z,2.17
2019-05-13T06:02:33.253Z,2.07
2019-05-13T06:05:04.377Z,2.03
2019-05-13T06:07:35.399Z,2.67
2019-05-13T06:10:06.005Z,2.00
2019-05-13T06:12:36.747Z,1.83
2019-05-13T06:15:07.159Z,1.93
2019-05-13T06:17:37.606Z,1.70
2019-05-13T06:20:08.062Z,2.10
2019-05-13T06:22:38.664Z,2.13
2019-05-13T06:25:09.192Z,1.77
2019-05-13T06:27:42.097Z,2.00
2019-05-13T06:30:12.562Z,1.97
2019-05-13T06:32:41.912Z,2.00
2019-05-13T06:35:11.604Z,1.93
2019-05-13T06:37:41.861Z,2.07
2019-05-13T06:40:12.793Z,1.70
2019-05-13T06:42:43.304Z,1.90
2019-05-13T06:45:13.987Z,1.70
2019-05-13T06:47:44.387Z,2.10
2019-05-13T06:50:14.891Z,1.57
2019-05-13T06:52:45.350Z,2.10
2019-05-13T06:55:15.923Z,2.07
2019-05-13T06:57:45.626Z,2.03
2019-05-13T07:00:15.957Z,1.80
2019-05-13T07:02:45.770Z,1.90
2019-05-13T07:05:16.205Z,2.43
2019-05-13T07:07:46.575Z,1.80
2019-05-13T07:10:16.996Z,2.00
2019-05-13T07:12:47.663Z,2.07
2019-05-13T07:15:18.308Z,2.07
2019-05-13T07:17:48.832Z,1.93
2019-05-13T07:20:22.344Z,1.87
2019-05-13T07:22:52.955Z,2.03
2019-05-13T07:25:22.168Z,2.00
2019-05-13T07:27:51.490Z,1.97
2019-05-13T07:30:26.316Z,1.80
2019-05-13T07:32:56.846Z,1.83
2019-05-13T07:35:30.773Z,1.90
2019-05-13T07:37:57.902Z,2.47
2019-05-13T07:40:28.768Z,2.17
2019-05-13T07:43:01.549Z,1.90
2019-05-13T07:45:31.609Z,1.93
2019-05-13T07:48:01.406Z,2.20
2019-05-13T07:50:32.244Z,2.33
2019-05-13T07:53:02.287Z,1.90
2019-05-13T07:55:31.710Z,2.30
2019-05-13T07:58:02.240Z,1.90
2019-05-13T08:00:32.743Z,2.17
2019-05-13T08:03:02.981Z,2.10
2019-05-13T08:05:33.479Z,2.60
2019-05-13T08:08:04.127Z,2.07
2019-05-13T08:10:34.663Z,2.50
2019-05-13T08:13:05.252Z,2.30
2019-05-13T08:15:35.596Z,2.67
2019-05-13T08:18:06.094Z,2.17
2019-05-13T08:20:36.537Z,2.20
2019-05-13T08:23:07.061Z,1.70
2019-05-13T08:25:37.677Z,2.00
2019-05-13T08:28:08.160Z,1.87
2019-05-13T08:30:38.549Z,1.80
2019-05-13T08:33:09.025Z,2.20
2019-05-13T08:40:51.160Z,2.40
2019-05-13T08:43:19.402Z,2.33
2019-05-13T08:45:51.672Z,1.57
2019-05-13T08:48:22.194Z,1.70
2019-05-13T08:50:52.188Z,1.90
2019-05-13T08:53:21.655Z,1.90
2019-05-13T08:55:52.072Z,1.93
2019-05-13T08:58:22.442Z,1.63
2019-05-13T09:00:54.203Z,1.67
2019-05-13T09:03:24.900Z,2.10
2019-05-13T09:05:55.582Z,1.80
2019-05-13T09:08:26.102Z,2.50
2019-05-13T09:10:57.267Z,2.47
2019-05-13T09:13:27.077Z,2.00
2019-05-13T09:15:57.553Z,2.20
2019-05-13T09:18:28.078Z,2.00
2019-05-13T09:20:58.509Z,2.30
2019-05-13T09:23:31.134Z,2.43
2019-05-13T09:26:02.661Z,2.40
2019-05-13T09:28:32.458Z,2.37
2019-05-13T09:31:02.150Z,1.60
2019-05-13T09:33:32.863Z,1.90
2019-05-13T09:36:03.121Z,1.73
2019-05-13T09:38:33.427Z,1.80
2019-05-13T09:41:03.855Z,1.50
2019-05-13T09:43:34.250Z,1.90
2019-05-13T09:46:04.758Z,1.90
2019-05-13T09:48:35.081Z,1.93
2019-05-13T09:51:05.663Z,1.40
2019-05-13T09:53:36.396Z,1.57
2019-05-13T09:56:06.842Z,1.17
2019-05-13T09:58:37.146Z,1.70
2019-05-13T10:01:07.651Z,1.20
2019-05-13T10:03:53.202Z,1.43
2019-05-13T10:06:07.835Z,1.73
2019-05-13T10:08:38.237Z,1.40
2019-05-13T10:11:08.566Z,1.13
2019-05-13T10:13:38.857Z,1.20
2019-05-13T10:16:12.239Z,1.00
2019-05-13T10:18:42.099Z,1.30
2019-05-13T10:21:10.390Z,1.03
2019-05-13T10:23:41.898Z,1.07
2019-05-13T10:26:13.993Z,0.97
2019-05-13T10:28:42.805Z,0.93
2019-05-13T10:31:13.041Z,1.33
2019-05-13T10:33:43.469Z,1.40
2019-05-13T10:36:14.078Z,1.23
2019-05-13T10:38:44.586Z,1.57
2019-05-13T10:41:15.107Z,1.57
2019-05-13T10:43:45.538Z,1.40
2019-05-13T10:46:15.955Z,1.80
2019-05-13T10:48:46.363Z,1.67
2019-05-13T10:51:16.870Z,1.80
2019-05-13T10:53:47.280Z,1.87
2019-05-13T10:56:17.759Z,1.90
2019-05-13T10:58:48.078Z,1.50
2019-05-13T11:01:18.579Z,1.50
2019-05-13T11:03:48.440Z,1.97
2019-05-13T11:06:18.876Z,1.50
2019-05-13T11:08:49.189Z,1.50
2019-05-13T11:11:21.936Z,1.60
2019-05-13T11:13:58.084Z,1.77
2019-05-13T11:16:22.583Z,1.20
2019-05-13T11:18:52.052Z,1.07
2019-05-13T11:21:22.442Z,1.40
2019-05-13T11:23:52.430Z,1.20
2019-05-13T11:26:24.320Z,1.47
2019-05-13T11:28:54.690Z,1.20
2019-05-13T11:31:25.086Z,0.83
2019-05-13T11:33:55.502Z,1.00
2019-05-13T11:36:25.930Z,1.00
2019-05-13T11:38:56.355Z,0.93
2019-05-13T11:41:26.797Z,1.00
2019-05-13T11:44:11.891Z,1.00
2019-05-13T11:46:27.681Z,1.23
2019-05-13T11:48:57.996Z,1.00
2019-05-13T11:51:28.808Z,1.00
2019-05-13T11:54:01.755Z,0.90
2019-05-13T11:56:33.404Z,0.90
2019-05-13T11:59:04.062Z,1.20
2019-05-13T12:01:33.466Z,1.10
2019-05-13T12:04:02.842Z,1.37
2019-05-13T12:06:33.955Z,1.20
2019-05-13T12:09:03.108Z,1.13
2019-05-13T12:11:33.499Z,1.43
2019-05-13T12:14:03.352Z,1.10
2019-05-13T12:16:35.028Z,1.30
2019-05-13T12:19:04.374Z,1.00
2019-05-13T12:21:41.591Z,1.20
2019-05-13T12:24:10.330Z,1.27
2019-05-13T12:26:35.717Z,0.90
2019-05-13T12:29:06.210Z,1.30
2019-05-13T12:31:36.551Z,1.10
2019-05-13T12:34:07.035Z,1.20
2019-05-13T12:36:37.535Z,1.10
2019-05-13T12:39:08.451Z,1.20
2019-05-13T12:44:02.173Z,0.97
2019-05-13T12:46:32.441Z,1.07
2019-05-13T12:49:04.051Z,1.80
2019-05-13T12:51:33.469Z,1.40
2019-05-13T12:54:04.082Z,1.00
2019-05-13T12:56:54.732Z,1.10
2019-05-13T12:59:25.270Z,1.17
2019-05-13T13:01:55.686Z,1.53
2019-05-13T13:04:26.010Z,1.57
2019-05-13T13:06:56.334Z,1.20
2019-05-13T13:09:26.716Z,1.50
2019-05-13T13:11:56.919Z,1.10
2019-05-13T13:14:35.040Z,1.47
2019-05-13T13:16:57.978Z,1.20
2019-05-13T13:19:28.405Z,1.30
2019-05-13T13:22:03.228Z,2.07
2019-05-13T13:24:31.595Z,1.50
2019-05-13T13:26:59.818Z,1.30
2019-05-13T13:29:33.669Z,1.40
2019-05-13T13:32:02.931Z,1.30
2019-05-13T13:34:33.765Z,1.70
2019-05-13T13:37:06.455Z,1.23
2019-05-13T13:39:36.757Z,2.27
2019-05-13T13:42:07.542Z,1.63
2019-05-13T13:44:37.870Z,1.50
2019-05-13T13:47:08.272Z,1.60
2019-05-13T13:49:38.808Z,1.60
2019-05-13T13:52:14.159Z,1.73
2019-05-13T13:54:44.139Z,1.30
2019-05-13T13:57:13.396Z,3.03
2019-05-13T14:00:14.819Z,1.40
2019-05-13T14:02:13.459Z,1.90
2019-05-13T14:04:42.969Z,1.50
2019-05-13T14:07:34.968Z,3.93
2019-05-13T14:09:43.058Z,2.70
2019-05-13T14:12:13.553Z,2.43
2019-05-13T14:14:44.412Z,1.47
2019-05-13T14:17:14.775Z,1.37
2019-05-13T14:19:45.246Z,1.30
2019-05-13T14:22:15.754Z,1.50
2019-05-13T14:24:46.241Z,1.43
2019-05-13T14:27:17.047Z,1.47
2019-05-13T14:29:49.364Z,1.50
2019-05-13T14:32:17.937Z,1.50
2019-05-13T14:34:48.418Z,1.33
2019-05-13T14:37:19.510Z,1.30
2019-05-13T14:39:50.070Z,1.50
2019-05-13T14:42:22.783Z,1.60
2019-05-13T14:44:52.167Z,1.23
2019-05-13T14:47:21.909Z,1.50
2019-05-13T14:49:52.259Z,4.07
2019-05-13T14:52:22.750Z,9.80
2019-05-13T14:54:53.066Z,1.30
2019-05-13T14:57:23.393Z,2.20
2019-05-13T14:59:53.833Z,1.30
2019-05-13T15:02:24.190Z,1.40
2019-05-13T15:04:54.682Z,2.03
2019-05-13T15:07:24.991Z,2.33
2019-05-13T15:09:55.554Z,1.90
2019-05-13T15:12:25.952Z,1.47
2019-05-13T15:14:56.268Z,1.20
2019-05-13T15:17:26.666Z,3.50
2019-05-13T15:19:57.074Z,1.30
2019-05-13T15:22:27.490Z,1.97
2019-05-13T15:24:57.928Z,1.67
2019-05-13T15:27:31.460Z,5.33
2019-05-13T15:30:14.500Z,5.10
2019-05-13T15:32:31.924Z,6.17
2019-05-13T15:35:02.185Z,2.77
2019-05-13T15:37:32.193Z,1.70
2019-05-13T15:40:03.908Z,2.53
2019-05-13T15:42:32.008Z,1.53
2019-05-13T15:45:02.414Z,6.33
2019-05-13T15:47:32.710Z,2.90
2019-05-13T15:50:03.241Z,2.10
2019-05-13T15:52:33.698Z,1.57
2019-05-13T15:55:04.239Z,1.63
2019-05-13T15:57:34.522Z,1.27
2019-05-13T16:00:05.302Z,1.40
2019-05-13T16:02:35.807Z,2.07
2019-05-13T16:05:06.594Z,3.60
2019-05-13T16:07:36.818Z,1.13
2019-05-13T16:10:07.729Z,1.37
2019-05-13T16:12:38.234Z,4.80
2019-05-13T16:15:13.087Z,4.70
2019-05-13T16:17:44.115Z,3.50
2019-05-13T16:20:10.454Z,2.10
2019-05-13T16:22:42.054Z,1.73
2019-05-13T16:25:11.409Z,2.10
2019-05-13T16:27:42.094Z,2.00
2019-05-13T16:30:12.657Z,2.30
2019-05-13T16:32:42.950Z,2.20
2019-05-13T16:35:13.687Z,1.67
2019-05-13T16:37:43.046Z,2.10
2019-05-13T16:40:13.580Z,1.80
2019-05-13T16:42:44.042Z,2.50
2019-05-13T16:45:14.709Z,2.90
2019-05-13T16:47:56.731Z,3.17
2019-05-13T16:50:15.806Z,4.23
2019-05-13T16:52:46.150Z,5.40
2019-05-13T16:55:16.740Z,3.00
2019-05-13T16:57:47.206Z,2.40
2019-05-13T17:00:18.042Z,3.13
2019-05-13T17:02:48.595Z,4.33
2019-05-13T17:05:19.182Z,3.03
2019-05-13T17:07:51.395Z,3.00
2019-05-13T17:10:22.348Z,2.50
2019-05-13T17:12:52.375Z,2.47
2019-05-13T17:15:21.344Z,4.40
2019-05-13T17:17:51.750Z,3.73
2019-05-13T17:20:22.362Z,4.10
2019-05-13T17:22:52.774Z,4.40
2019-05-13T17:25:23.145Z,3.67
2019-05-13T17:27:54.121Z,4.00
2019-05-13T17:30:24.955Z,4.83
2019-05-13T17:32:55.363Z,4.03
2019-05-13T17:35:25.791Z,5.40
2019-05-13T17:37:56.189Z,5.30
2019-05-13T17:40:25.882Z,4.90
2019-05-13T17:42:56.182Z,6.10
2019-05-13T17:45:26.689Z,4.50
2019-05-13T17:47:57.070Z,6.73
2019-05-13T17:50:27.474Z,9.63
2019-05-13T17:52:57.826Z,9.93
2019-05-13T17:55:28.291Z,6.87
2019-05-13T17:58:01.259Z,6.70
2019-05-13T18:00:29.235Z,7.20
2019-05-13T18:03:01.751Z,5.63
2019-05-13T18:05:31.499Z,4.60
2019-05-13T18:08:01.887Z,3.10
2019-05-13T18:10:31.773Z,2.93
2019-05-13T18:13:01.870Z,3.23
2019-05-13T18:15:32.308Z,2.50
2019-05-13T18:18:03.043Z,2.90
2019-05-13T18:20:33.586Z,2.90
2019-05-13T18:23:04.218Z,2.90
2019-05-13T18:25:34.850Z,2.80
2019-05-13T18:28:05.630Z,2.60
2019-05-13T18:30:36.235Z,3.10
2019-05-13T18:33:11.825Z,3.00
2019-05-13T18:35:48.321Z,2.90
2019-05-13T18:38:23.500Z,2.90
2019-05-13T18:40:54.243Z,2.47
2019-05-13T18:43:24.761Z,2.40
2019-05-13T18:45:55.334Z,3.17
2019-05-13T18:48:25.864Z,2.77
2019-05-13T18:50:56.330Z,2.53
2019-05-13T18:53:26.751Z,2.90
2019-05-13T18:55:56.947Z,2.50
2019-05-13T18:58:27.363Z,2.83
2019-05-13T19:00:57.662Z,2.97
2019-05-13T19:03:28.135Z,3.00
2019-05-13T19:05:58.675Z,3.20
2019-05-13T19:08:29.052Z,4.10
2019-05-13T19:11:01.215Z,5.80
2019-05-13T19:13:32.467Z,9.13
2019-05-13T19:16:02.319Z,6.87
2019-05-13T19:18:32.044Z,4.50
2019-05-13T19:21:02.420Z,4.23
2019-05-13T19:23:32.958Z,4.13
2019-05-13T19:26:03.546Z,3.90
2019-05-13T19:28:34.098Z,4.50
2019-05-13T19:31:04.675Z,5.73
2019-05-13T19:33:35.863Z,6.87
2019-05-13T19:36:05.834Z,9.03
2019-05-13T19:38:36.478Z,6.50
2019-05-13T19:41:07.067Z,6.47
2019-05-13T19:43:37.650Z,8.33
2019-05-13T19:46:08.571Z,8.07
2019-05-13T19:48:41.558Z,10.80
2019-05-13T19:51:09.972Z,8.60
2019-05-13T19:53:41.177Z,6.53
2019-05-13T19:56:11.888Z,7.50
2019-05-13T19:58:41.098Z,8.70
2019-05-13T20:01:11.768Z,8.43
2019-05-13T20:03:42.533Z,7.57
2019-05-13T20:06:12.873Z,9.70
2019-05-13T20:08:43.158Z,8.30
2019-05-13T20:11:13.429Z,7.43
2019-05-13T20:13:43.982Z,8.63
2019-05-13T20:16:14.291Z,7.20
2019-05-13T20:18:44.821Z,7.77
2019-05-13T20:21:15.705Z,5.60
2019-05-13T20:23:46.178Z,5.90
2019-05-13T20:26:16.842Z,7.17
2019-05-13T20:28:47.446Z,6.57
2019-05-13T20:31:18.026Z,7.90
2019-05-13T20:33:48.443Z,9.13
2019-05-13T20:36:18.266Z,8.97
2019-05-13T20:38:50.960Z,5.37
2019-05-13T20:41:19.483Z,6.97
2019-05-13T20:43:52.096Z,6.37
2019-05-13T20:46:22.969Z,6.03
2019-05-13T20:48:51.978Z,7.03
2019-05-13T20:51:22.087Z,5.40
2019-05-13T20:53:52.646Z,5.17
2019-05-13T20:56:23.202Z,5.40
2019-05-13T20:58:53.622Z,6.20
2019-05-13T21:01:24.222Z,7.20
2019-05-13T21:03:54.559Z,7.60
2019-05-13T21:06:25.134Z,8.90
2019-05-13T21:08:55.578Z,7.03
2019-05-13T21:11:26.250Z,7.90
2019-05-13T21:13:56.687Z,7.23
2019-05-13T21:16:27.302Z,7.00
2019-05-13T21:18:57.908Z,11.33
2019-05-13T21:21:28.526Z,10.97
2019-05-13T21:23:58.233Z,7.20
2019-05-13T21:26:28.511Z,8.47
2019-05-13T21:28:59.009Z,7.50
2019-05-13T21:31:29.662Z,7.13
2019-05-13T21:34:01.353Z,8.57
2019-05-13T21:36:31.334Z,6.33
2019-05-13T21:39:01.851Z,7.80
2019-05-13T21:41:32.388Z,14.83
2019-05-13T21:44:02.922Z,7.87
2019-05-13T21:46:33.178Z,8.30
2019-05-13T21:49:03.347Z,8.07
2019-05-13T21:51:33.894Z,8.57
2019-05-13T21:54:04.017Z,15.40
2019-05-13T21:56:34.527Z,11.07
2019-05-13T21:59:05.194Z,26.43
2019-05-13T22:01:36.045Z,13.90
2019-05-13T22:04:06.593Z,9.47
2019-05-13T22:06:37.035Z,9.87
2019-05-13T22:09:08.650Z,13.57
2019-05-13T22:11:38.969Z,20.63
2019-05-13T22:14:11.156Z,7.37
2019-05-13T22:16:41.249Z,8.33
2019-05-13T22:19:12.305Z,6.73
2019-05-13T22:21:42.356Z,8.77
2019-05-13T22:24:11.758Z,6.40
2019-05-13T22:26:42.260Z,9.03
2019-05-13T22:29:12.674Z,8.97
2019-05-13T22:31:43.457Z,6.53
2019-05-13T22:34:13.782Z,8.20
2019-05-13T22:36:44.478Z,7.23
2019-05-13T22:39:14.811Z,8.27
2019-05-13T22:41:45.190Z,9.00
2019-05-13T22:44:15.586Z,8.43
2019-05-13T22:46:46.205Z,8.53
2019-05-13T22:49:16.542Z,7.77
2019-05-13T22:51:46.814Z,7.47
2019-05-13T22:54:17.166Z,9.47
2019-05-13T22:56:47.506Z,5.40
2019-05-13T22:59:17.818Z,6.17
2019-05-13T23:01:48.038Z,6.10
2019-05-13T23:04:18.417Z,4.73
2019-05-13T23:06:48.930Z,5.60
2019-05-13T23:09:21.480Z,4.90
2019-05-13T23:11:51.108Z,4.90
2019-05-13T23:14:22.005Z,6.60
2019-05-13T23:16:50.606Z,5.03
2019-05-13T23:19:21.690Z,5.80
2019-05-13T23:21:51.329Z,6.70
2019-05-13T23:24:21.841Z,7.77
2019-05-13T23:26:51.645Z,4.90
2019-05-13T23:29:21.589Z,5.50
2019-05-13T23:31:52.159Z,6.00
2019-05-13T23:34:22.458Z,6.80
2019-05-13T23:36:52.890Z,5.40
2019-05-13T23:39:23.261Z,5.47
2019-05-13T23:41:53.785Z,6.90
2019-05-13T23:44:28.068Z,3.83
2019-05-13T23:46:54.577Z,5.63
2019-05-13T23:49:24.994Z,4.67
2019-05-13T23:51:55.482Z,4.80
2019-05-13T23:54:25.790Z,4.80
2019-05-13T23:56:56.110Z,4.83
2019-05-13T23:59:26.365Z,3.17
